Time;durP1;ratioP1;P1;durP2;ratioP2;P2;SDS_P1;SDS_P2;PMS_P1;PMS_P2;Temp;Humidity;BMP_temperature;BMP_pressure;BME280_temperature;BME280_humidity;BME280_pressure;Samples;Min_cycle;Max_cycle;Signal;HPM_P1;HPM_P2
2021/09/30 00:00:09;;;;;;;2.40;0.65;;;11.90;83.00;;;;;;4861794;29;20079;-67
2021/09/30 00:02:35;;;;;;;1.92;0.70;;;11.90;82.60;;;;;;4865676;29;20132;-67
2021/09/30 00:05:00;;;;;;;6.57;0.88;;;11.80;82.60;;;;;;4864272;29;20135;-67
2021/09/30 00:07:26;;;;;;;2.15;0.65;;;11.80;82.70;;;;;;4857519;29;20041;-66
2021/09/30 00:09:52;;;;;;;2.88;0.60;;;11.80;82.10;;;;;;4861596;29;20101;-67
2021/09/30 00:12:23;;;;;;;2.60;0.90;;;11.70;82.20;;;;;;4859501;29;20057;-67
2021/09/30 00:14:55;;;;;;;1.38;0.80;;;11.70;83.10;;;;;;4859141;29;20055;-67
2021/09/30 00:41:56;;;;;;;2.30;0.90;;;11.70;82.20;;;;;;4865304;29;20130;-67
2021/09/30 00:48:16;;;;;;;1.00;0.60;;;11.60;82.00;;;;;;4866104;29;20044;-67
2021/09/30 00:56:07;;;;;;;1.55;0.65;;;11.50;83.40;;;;;;4864079;29;20069;-67
2021/09/30 01:21:53;;;;;;;2.85;0.80;;;11.30;83.30;;;;;;4865317;29;20041;-67
2021/09/30 02:20:48;;;;;;;1.83;0.90;;;11.00;84.80;;;;;;4872855;29;20048;-67
2021/09/30 02:23:46;;;;;;;2.70;0.90;;;11.00;85.10;;;;;;4873191;29;20132;-67
2021/09/30 02:26:26;;;;;;;3.38;1.15;;;11.00;85.40;;;;;;4862943;29;20049;-67
2021/09/30 02:28:51;;;;;;;3.28;1.10;;;11.00;85.70;;;;;;4872622;29;20048;-67
2021/09/30 02:59:09;;;;;;;3.00;1.60;;;11.10;85.60;;;;;;4867149;29;20487;-67
2021/09/30 03:01:38;;;;;;;1.80;1.00;;;11.10;84.70;;;;;;4867254;29;20040;-67
2021/09/30 03:04:07;;;;;;;1.85;1.00;;;11.20;85.00;;;;;;4867257;29;20577;-67
2021/09/30 03:06:34;;;;;;;6.75;1.40;;;11.20;85.20;;;;;;4865851;29;20041;-67
2021/09/30 03:09:03;;;;;;;1.45;0.95;;;11.20;85.10;;;;;;4864999;29;20669;-67
2021/09/30 03:11:30;;;;;;;2.60;1.00;;;11.30;84.40;;;;;;4866861;29;20029;-67
2021/09/30 03:13:59;;;;;;;2.50;1.10;;;11.30;84.00;;;;;;4864706;29;20025;-67
2021/09/30 03:16:32;;;;;;;4.85;1.20;;;11.40;84.60;;;;;;4861816;29;20041;-67
2021/09/30 03:19:32;;;;;;;4.65;1.30;;;11.40;84.20;;;;;;4868197;29;20442;-67
2021/09/30 03:24:29;;;;;;;2.60;1.38;;;11.50;84.00;;;;;;4866404;29;20490;-67
2021/09/30 03:26:56;;;;;;;3.30;1.27;;;11.40;83.30;;;;;;4857106;29;20093;-67
2021/09/30 03:29:22;;;;;;;3.17;1.00;;;11.30;83.90;;;;;;4857874;29;20061;-67
2021/09/30 03:31:51;;;;;;;2.55;0.88;;;11.30;83.50;;;;;;4857317;29;20383;-68
2021/09/30 03:34:40;;;;;;;2.03;0.80;;;11.30;84.30;;;;;;4860843;29;20577;-67
2021/09/30 03:37:07;;;;;;;3.45;1.00;;;11.40;84.00;;;;;;4858477;29;20169;-67
2021/09/30 03:39:33;;;;;;;1.27;0.88;;;11.40;83.70;;;;;;4855315;29;20038;-67
2021/09/30 03:41:59;;;;;;;6.55;1.50;;;11.40;83.60;;;;;;4854000;29;20048;-67
2021/09/30 03:44:33;;;;;;;3.15;1.20;;;11.30;84.00;;;;;;4868993;29;20834;-67
2021/09/30 03:46:59;;;;;;;3.08;0.98;;;11.40;84.00;;;;;;4877745;29;20063;-67
2021/09/30 03:49:50;;;;;;;4.43;1.15;;;11.40;84.10;;;;;;4858650;29;20524;-67
2021/09/30 04:00:47;;;;;;;1.65;0.90;;;11.20;84.10;;;;;;4864922;29;20784;-67
2021/09/30 04:03:13;;;;;;;2.17;1.00;;;11.20;84.20;;;;;;4859227;29;20053;-67
2021/09/30 04:05:43;;;;;;;1.92;0.93;;;11.10;85.30;;;;;;4866244;29;20994;-66
2021/09/30 04:08:08;;;;;;;1.27;0.88;;;11.10;85.00;;;;;;4867247;29;20040;-67
2021/09/30 04:10:35;;;;;;;4.18;1.40;;;11.10;84.80;;;;;;4868032;29;20394;-67
2021/09/30 04:13:01;;;;;;;4.05;1.15;;;11.20;84.70;;;;;;4851926;29;20044;-66
2021/09/30 04:15:28;;;;;;;1.95;1.13;;;11.10;84.60;;;;;;4858547;29;20029;-67
2021/09/30 04:17:53;;;;;;;4.20;0.93;;;11.10;84.40;;;;;;4860836;29;20083;-67
2021/09/30 04:20:21;;;;;;;3.78;1.92;;;11.10;84.80;;;;;;4859865;29;20561;-67
2021/09/30 04:22:47;;;;;;;2.08;0.80;;;11.10;84.70;;;;;;4866864;29;20086;-67
2021/09/30 04:25:13;;;;;;;3.38;0.90;;;11.10;84.70;;;;;;4855046;29;20789;-67
2021/09/30 04:27:39;;;;;;;6.28;1.20;;;11.10;84.60;;;;;;4872305;29;20037;-66
2021/09/30 04:30:06;;;;;;;3.72;1.10;;;11.10;84.80;;;;;;4856018;29;20034;-67
2021/09/30 04:32:44;;;;;;;2.55;1.00;;;11.10;84.50;;;;;;4873715;29;20037;-67
2021/09/30 04:35:10;;;;;;;2.00;0.80;;;11.10;84.60;;;;;;4865513;29;20047;-67
2021/09/30 04:37:36;;;;;;;4.30;1.20;;;11.10;84.80;;;;;;4878447;29;20430;-67
2021/09/30 04:40:02;;;;;;;3.55;1.10;;;11.10;84.00;;;;;;4869334;29;20028;-66
2021/09/30 04:42:29;;;;;;;3.05;1.08;;;11.10;84.70;;;;;;4866179;29;20041;-68
2021/09/30 04:44:55;;;;;;;2.83;1.08;;;11.10;84.00;;;;;;4863578;29;20060;-67
2021/09/30 04:47:21;;;;;;;5.72;1.33;;;11.10;84.10;;;;;;4868951;29;20088;-67
2021/09/30 04:49:53;;;;;;;1.90;1.10;;;11.10;85.00;;;;;;4868222;29;20062;-67
2021/09/30 04:52:20;;;;;;;2.38;1.40;;;11.20;84.40;;;;;;4877132;29;20037;-66
2021/09/30 04:54:48;;;;;;;2.30;1.00;;;11.20;84.20;;;;;;4872913;29;20033;-66
2021/09/30 04:57:16;;;;;;;3.30;1.08;;;11.30;83.70;;;;;;4866557;29;20688;-68
2021/09/30 04:59:42;;;;;;;3.08;1.25;;;11.30;84.00;;;;;;4865235;29;20053;-68
2021/09/30 05:02:37;;;;;;;6.88;1.20;;;11.30;84.00;;;;;;4871660;29;20048;-67
2021/09/30 05:05:03;;;;;;;6.38;1.20;;;11.30;83.60;;;;;;4863921;29;20037;-67
2021/09/30 05:07:29;;;;;;;2.05;1.20;;;11.40;83.30;;;;;;4862177;29;20029;-67
2021/09/30 05:09:55;;;;;;;3.17;1.30;;;11.40;83.70;;;;;;4859705;29;20556;-69
2021/09/30 05:12:21;;;;;;;7.60;1.10;;;11.40;82.60;;;;;;4862136;29;20040;-67
2021/09/30 05:14:48;;;;;;;2.65;1.10;;;11.40;82.90;;;;;;4877947;29;20076;-70
2021/09/30 05:17:14;;;;;;;4.57;1.20;;;11.40;82.60;;;;;;4865710;29;20069;-67
2021/09/30 05:19:40;;;;;;;3.40;1.20;;;11.30;83.40;;;;;;4865420;29;20120;-69
2021/09/30 05:22:09;;;;;;;0.88;0.82;;;11.30;83.50;;;;;;4867273;29;20057;-69
2021/09/30 05:24:34;;;;;;;2.90;0.93;;;11.30;83.50;;;;;;4864230;29;20993;-68
2021/09/30 05:27:00;;;;;;;3.45;1.35;;;11.30;83.40;;;;;;4866660;29;20064;-71
2021/09/30 05:29:26;;;;;;;2.58;1.17;;;11.40;83.10;;;;;;4854155;29;20064;-73
2021/09/30 05:32:07;;;;;;;1.65;0.90;;;11.40;82.70;;;;;;4869419;29;20033;-74
2021/09/30 05:34:52;;;;;;;3.28;1.10;;;11.30;82.80;;;;;;4862857;29;20165;-74
2021/09/30 05:37:18;;;;;;;6.00;1.10;;;11.40;83.50;;;;;;4864959;29;20449;-74
2021/09/30 05:39:44;;;;;;;3.45;0.80;;;11.40;82.80;;;;;;4862361;29;20108;-74
2021/09/30 05:42:10;;;;;;;3.00;1.20;;;11.40;83.40;;;;;;4863772;29;20156;-72
2021/09/30 05:44:37;;;;;;;2.38;0.82;;;11.50;82.60;;;;;;4862724;29;20105;-73
2021/09/30 05:47:04;;;;;;;2.78;1.00;;;11.50;82.80;;;;;;4866369;29;20112;-72
2021/09/30 05:49:32;;;;;;;3.60;1.20;;;11.50;82.80;;;;;;4868199;29;20127;-73
2021/09/30 05:52:17;;;;;;;7.10;1.20;;;11.60;82.50;;;;;;4867541;29;20151;-68
2021/09/30 05:54:55;;;;;;;3.28;1.20;;;11.60;82.20;;;;;;4866199;29;20488;-73
2021/09/30 05:57:25;;;;;;;2.25;1.13;;;11.70;81.70;;;;;;4853820;29;20055;-73
2021/09/30 05:59:51;;;;;;;5.38;1.13;;;11.70;82.10;;;;;;4848868;29;20044;-73
2021/09/30 06:07:13;;;;;;;5.53;1.30;;;11.70;81.80;;;;;;4874824;29;20513;-73
2021/09/30 06:10:46;;;;;;;2.88;1.10;;;11.70;81.80;;;;;;4868202;29;20047;-74
2021/09/30 06:13:18;;;;;;;2.47;0.93;;;11.70;81.00;;;;;;4871013;29;20920;-73
2021/09/30 06:15:45;;;;;;;4.25;1.05;;;11.60;81.80;;;;;;4869915;29;20085;-73
2021/09/30 06:18:14;;;;;;;2.92;1.00;;;11.50;81.90;;;;;;4864464;29;20038;-73
2021/09/30 06:20:46;;;;;;;3.28;0.85;;;11.60;82.00;;;;;;4873768;29;20087;-71
2021/09/30 06:23:13;;;;;;;3.75;1.08;;;11.70;81.60;;;;;;4862621;29;20553;-73
2021/09/30 06:25:39;;;;;;;1.08;0.90;;;11.70;81.40;;;;;;4854442;29;20038;-73
2021/09/30 06:28:07;;;;;;;2.90;0.95;;;11.70;81.40;;;;;;4861649;29;20040;-72
2021/09/30 06:30:33;;;;;;;2.50;1.00;;;11.80;81.60;;;;;;4862407;29;20086;-72
2021/09/30 06:33:17;;;;;;;6.47;1.35;;;11.80;81.80;;;;;;4863414;29;20045;-73
2021/09/30 06:36:03;;;;;;;2.83;1.10;;;11.90;81.30;;;;;;4855268;29;20776;-72
2021/09/30 06:38:28;;;;;;;3.53;1.45;;;11.90;80.90;;;;;;4867419;29;20105;-73
2021/09/30 06:40:55;;;;;;;5.20;1.08;;;11.90;81.80;;;;;;4871901;29;20498;-71
2021/09/30 06:43:20;;;;;;;7.25;1.23;;;11.90;81.00;;;;;;4855461;29;20061;-71
2021/09/30 06:46:15;;;;;;;0.77;0.70;;;11.90;80.80;;;;;;4861912;29;20052;-70
2021/09/30 06:48:51;;;;;;;;;;;12.10;81.10;;;;;;4866062;29;20805;-78
2021/09/30 06:51:46;;;;;;;4.60;1.48;;;12.00;80.50;;;;;;4857763;29;19998;-70
2021/09/30 06:54:12;;;;;;;3.25;1.00;;;12.10;80.40;;;;;;4867930;29;20036;-71
2021/09/30 06:57:10;;;;;;;3.80;1.05;;;12.10;80.20;;;;;;4848613;29;20041;-70
2021/09/30 07:00:05;;;;;;;3.83;1.38;;;12.10;80.70;;;;;;4859044;29;20074;-72
2021/09/30 07:02:51;;;;;;;4.78;1.23;;;12.10;80.50;;;;;;4860502;29;20088;-72
2021/09/30 07:05:33;;;;;;;3.63;1.17;;;12.20;79.70;;;;;;4862353;29;20150;-74
2021/09/30 07:08:12;;;;;;;3.30;1.02;;;12.30;80.10;;;;;;4870162;29;20033;-72
2021/09/30 07:10:38;;;;;;;2.47;1.20;;;12.20;79.40;;;;;;4861832;29;20093;-72
2021/09/30 07:13:03;;;;;;;3.75;1.30;;;12.10;79.90;;;;;;4860565;29;20092;-73
2021/09/30 07:15:29;;;;;;;4.07;1.17;;;12.10;80.70;;;;;;4856094;29;20033;-71
2021/09/30 07:17:56;;;;;;;1.95;1.10;;;12.10;80.90;;;;;;4852578;29;20033;-74
2021/09/30 07:20:22;;;;;;;1.70;1.00;;;12.10;80.40;;;;;;4864499;29;20096;-72
2021/09/30 07:22:48;;;;;;;3.97;1.13;;;12.10;80.80;;;;;;4861389;29;20109;-71
2021/09/30 07:25:14;;;;;;;4.90;1.75;;;12.20;80.50;;;;;;4858451;29;20037;-71
2021/09/30 07:27:39;;;;;;;3.30;1.17;;;12.30;79.90;;;;;;4851893;29;20052;-71
2021/09/30 07:30:06;;;;;;;4.50;1.15;;;12.40;80.00;;;;;;4848411;29;20141;-71
2021/09/30 07:32:31;;;;;;;6.43;1.13;;;12.50;79.40;;;;;;4847736;29;20036;-70
2021/09/30 07:34:57;;;;;;;4.60;1.00;;;12.60;78.70;;;;;;4851249;29;20112;-71
2021/09/30 07:37:24;;;;;;;4.28;1.20;;;12.50;79.60;;;;;;4838558;29;20075;-71
2021/09/30 07:39:50;;;;;;;2.05;0.95;;;12.50;78.90;;;;;;4873383;29;20038;-69
2021/09/30 07:42:16;;;;;;;2.97;1.33;;;12.50;78.90;;;;;;4863891;29;20041;-70
2021/09/30 07:44:41;;;;;;;10.38;3.22;;;12.60;78.70;;;;;;4865888;29;20384;-70
2021/09/30 07:47:07;;;;;;;4.47;1.00;;;12.60;78.60;;;;;;4860709;29;20040;-77
2021/09/30 07:49:33;;;;;;;2.53;1.17;;;12.50;78.60;;;;;;4860434;29;20040;-70
2021/09/30 07:52:00;;;;;;;5.63;1.30;;;12.60;79.00;;;;;;4865484;29;20068;-70
2021/09/30 07:54:26;;;;;;;2.03;1.05;;;12.50;78.80;;;;;;4866186;29;20037;-70
2021/09/30 07:56:52;;;;;;;1.35;1.10;;;12.60;79.00;;;;;;4858726;29;20041;-70
2021/09/30 07:59:18;;;;;;;4.15;1.10;;;12.60;78.00;;;;;;4857238;29;20055;-69
2021/09/30 08:01:43;;;;;;;2.20;1.20;;;12.70;78.40;;;;;;4863641;29;20047;-68
2021/09/30 08:04:09;;;;;;;3.90;1.38;;;12.70;78.50;;;;;;4867638;29;20101;-69
2021/09/30 08:06:39;;;;;;;5.03;1.25;;;12.80;77.80;;;;;;4865288;29;20029;-69
2021/09/30 08:09:05;;;;;;;3.15;0.93;;;12.90;78.20;;;;;;4861834;29;20037;-68
2021/09/30 08:11:31;;;;;;;4.70;1.10;;;13.00;77.00;;;;;;4871575;29;20040;-69
2021/09/30 08:13:57;;;;;;;4.03;1.30;;;13.00;77.20;;;;;;4879716;29;20045;-69
2021/09/30 08:16:24;;;;;;;3.85;1.20;;;13.00;76.80;;;;;;4867382;29;20041;-69
2021/09/30 08:18:50;;;;;;;3.72;1.20;;;13.00;77.60;;;;;;4862911;29;20049;-69
2021/09/30 08:21:17;;;;;;;4.28;1.40;;;13.10;77.10;;;;;;4858275;29;20050;-70
2021/09/30 08:23:43;;;;;;;2.35;1.10;;;13.20;77.00;;;;;;4868113;29;20041;-70
2021/09/30 08:26:10;;;;;;;7.18;1.30;;;13.30;76.20;;;;;;4849643;29;20113;-70
2021/09/30 08:28:36;;;;;;;3.20;1.20;;;13.30;76.60;;;;;;4853097;29;20458;-69
2021/09/30 08:31:06;;;;;;;3.72;1.67;;;13.40;75.80;;;;;;4857250;29;20041;-69
2021/09/30 08:33:32;;;;;;;4.57;1.05;;;13.50;76.50;;;;;;4861689;29;20061;-69
2021/09/30 08:35:59;;;;;;;3.15;1.27;;;13.70;75.30;;;;;;4865171;29;20101;-69
2021/09/30 08:38:25;;;;;;;2.95;1.00;;;13.60;75.10;;;;;;4854831;29;20585;-69
2021/09/30 08:40:52;;;;;;;5.13;1.08;;;13.80;74.50;;;;;;4855338;29;20113;-69
2021/09/30 08:43:18;;;;;;;5.85;1.20;;;13.90;74.20;;;;;;4865031;29;20109;-69
2021/09/30 08:45:44;;;;;;;5.07;1.00;;;14.10;74.20;;;;;;4863650;29;20033;-69
2021/09/30 08:48:10;;;;;;;3.20;1.20;;;14.30;74.10;;;;;;4865671;29;20044;-76
2021/09/30 08:50:41;;;;;;;2.33;1.10;;;14.50;71.90;;;;;;4852947;29;20071;-69
2021/09/30 08:53:11;;;;;;;5.57;1.25;;;14.60;70.90;;;;;;4859078;29;20229;-69
2021/09/30 08:55:41;;;;;;;7.75;1.30;;;14.60;71.20;;;;;;4867260;29;20053;-69
2021/09/30 08:58:08;;;;;;;3.47;1.20;;;14.60;71.30;;;;;;4866875;29;20078;-70
2021/09/30 09:00:37;;;;;;;2.97;1.17;;;14.50;71.60;;;;;;4866851;29;20132;-69
2021/09/30 09:03:02;;;;;;;3.85;1.02;;;14.60;71.80;;;;;;4856482;29;20048;-73
2021/09/30 09:05:29;;;;;;;3.30;1.00;;;14.80;71.20;;;;;;4859563;29;20104;-74
2021/09/30 09:08:02;;;;;;;6.32;1.35;;;14.90;70.30;;;;;;4854203;29;20034;-73
2021/09/30 09:10:31;;;;;;;4.03;1.30;;;15.00;70.00;;;;;;4850538;29;20829;-72
2021/09/30 09:13:09;;;;;;;3.28;1.05;;;15.20;70.10;;;;;;4860842;29;20152;-72
2021/09/30 09:15:57;;;;;;;2.65;1.00;;;15.30;69.20;;;;;;4859935;29;20117;-72
2021/09/30 09:18:25;;;;;;;3.30;1.10;;;15.30;69.50;;;;;;4863054;29;20738;-70
2021/09/30 09:21:06;;;;;;;2.25;1.05;;;15.20;70.30;;;;;;4867334;29;20048;-70
2021/09/30 09:23:38;;;;;;;8.40;1.27;;;15.00;69.90;;;;;;4863560;29;20049;-68
2021/09/30 09:26:13;;;;;;;6.03;1.00;;;14.90;70.90;;;;;;4860495;29;20041;-71
2021/09/30 09:29:00;;;;;;;4.07;0.90;;;14.90;70.40;;;;;;4859686;29;20043;-72
2021/09/30 09:31:37;;;;;;;3.95;1.00;;;14.80;70.90;;;;;;4867027;29;20131;-72
2021/09/30 09:34:38;;;;;;;;;;;14.70;70.10;;;;;;4866228;29;20079;-71
2021/09/30 09:37:35;;;;;;;3.13;1.02;;;14.60;71.00;;;;;;4841685;29;20023;-70
2021/09/30 09:40:17;;;;;;;4.57;1.00;;;14.70;71.90;;;;;;4856622;29;20498;-70
2021/09/30 09:42:42;;;;;;;9.68;1.15;;;14.80;71.40;;;;;;4864324;29;20502;-70
2021/09/30 09:45:13;;;;;;;3.17;0.90;;;14.80;70.10;;;;;;4852387;29;20093;-72
2021/09/30 09:47:41;;;;;;;1.90;0.80;;;15.00;71.60;;;;;;4870972;29;20045;-73
2021/09/30 09:50:15;;;;;;;2.85;0.90;;;15.40;68.80;;;;;;4859050;29;20148;-71
2021/09/30 09:52:58;;;;;;;2.63;0.90;;;15.80;68.80;;;;;;4852721;29;20482;-70
2021/09/30 09:55:28;;;;;;;6.70;1.05;;;16.00;68.10;;;;;;4851414;29;20117;-70
2021/09/30 09:58:05;;;;;;;3.55;0.80;;;16.30;68.30;;;;;;4861412;29;20453;-70
2021/09/30 10:00:36;;;;;;;4.07;0.90;;;16.20;64.60;;;;;;4859690;29;20049;-69
2021/09/30 10:03:26;;;;;;;3.45;0.98;;;16.10;67.20;;;;;;4853118;29;20042;-69
2021/09/30 10:05:53;;;;;;;4.93;1.20;;;16.10;66.80;;;;;;4850039;29;20128;-69
2021/09/30 10:08:20;;;;;;;4.57;1.02;;;16.10;66.20;;;;;;4853367;29;20040;-69
2021/09/30 10:10:48;;;;;;;6.47;1.38;;;16.10;66.10;;;;;;4858887;29;20029;-69
2021/09/30 10:13:16;;;;;;;5.32;1.25;;;16.00;65.60;;;;;;4861697;29;20033;-69
2021/09/30 10:15:43;;;;;;;3.35;1.08;;;16.00;66.70;;;;;;4865942;29;20506;-68
2021/09/30 10:18:10;;;;;;;6.45;1.42;;;16.20;67.40;;;;;;4866923;29;20196;-69
2021/09/30 10:20:37;;;;;;;4.82;1.15;;;16.40;66.70;;;;;;4863344;29;20040;-69
2021/09/30 10:23:06;;;;;;;3.25;1.30;;;16.40;65.40;;;;;;4860897;29;20048;-69
2021/09/30 10:25:37;;;;;;;3.10;1.02;;;16.40;65.00;;;;;;4861227;29;20033;-70
2021/09/30 10:28:08;;;;;;;2.10;0.65;;;16.50;66.00;;;;;;4852652;29;20051;-70
2021/09/30 10:30:35;;;;;;;4.10;1.10;;;16.70;66.00;;;;;;4857195;29;20089;-68
2021/09/30 10:33:03;;;;;;;4.15;1.23;;;17.00;66.00;;;;;;4858367;29;20579;-68
2021/09/30 10:35:37;;;;;;;7.25;1.02;;;17.20;64.30;;;;;;4862963;29;20048;-70
2021/09/30 10:38:24;;;;;;;5.35;1.08;;;17.30;62.20;;;;;;4864255;29;20053;-69
2021/09/30 10:41:13;;;;;;;5.00;1.20;;;17.10;62.60;;;;;;4859393;29;20041;-69
2021/09/30 10:43:46;;;;;;;4.80;0.90;;;16.90;62.80;;;;;;4857462;29;20048;-69
2021/09/30 10:46:21;;;;;;;3.88;0.70;;;16.60;63.50;;;;;;4864828;29;20115;-70
2021/09/30 10:48:48;;;;;;;6.20;1.58;;;16.60;65.20;;;;;;4884162;29;20112;-68
2021/09/30 10:51:14;;;;;;;3.40;1.05;;;16.70;65.30;;;;;;4852972;29;20046;-70
2021/09/30 10:53:46;;;;;;;3.88;1.10;;;16.70;64.50;;;;;;4860743;29;20487;-69
2021/09/30 10:56:30;;;;;;;5.15;1.10;;;16.90;64.40;;;;;;4866644;29;20718;-69
2021/09/30 10:59:22;;;;;;;5.70;0.88;;;17.00;63.70;;;;;;4868547;29;20036;-73
2021/09/30 11:01:47;;;;;;;6.82;1.15;;;16.90;63.60;;;;;;4836982;29;20049;-72
2021/09/30 11:04:18;;;;;;;2.08;0.80;;;16.70;61.30;;;;;;4866434;29;20037;-70
2021/09/30 11:07:13;;;;;;;2.53;0.88;;;16.50;63.40;;;;;;4857092;29;20071;-70
2021/09/30 11:09:38;;;;;;;4.88;0.90;;;16.40;64.00;;;;;;4860624;29;20029;-71
2021/09/30 11:12:13;;;;;;;5.47;1.05;;;16.30;63.90;;;;;;4854487;29;20077;-71
2021/09/30 11:14:56;;;;;;;5.13;2.22;;;16.30;65.30;;;;;;4866237;29;20090;-70
2021/09/30 11:17:40;;;;;;;7.03;2.05;;;16.40;65.00;;;;;;4862390;29;20065;-71
2021/09/30 11:20:29;;;;;;;3.72;1.08;;;16.50;64.00;;;;;;4861472;29;20044;-72
2021/09/30 11:22:55;;;;;;;3.17;0.80;;;16.50;63.60;;;;;;4869078;29;20041;-71
2021/09/30 11:25:21;;;;;;;5.97;1.20;;;16.50;63.50;;;;;;4864860;29;20070;-70
2021/09/30 11:28:06;;;;;;;5.93;0.90;;;16.50;62.90;;;;;;4864187;29;20121;-70
2021/09/30 11:30:32;;;;;;;4.40;1.10;;;16.50;63.00;;;;;;4866866;29;20498;-70
2021/09/30 11:32:59;;;;;;;6.57;1.90;;;16.70;64.30;;;;;;4867557;29;20037;-68
2021/09/30 11:35:25;;;;;;;4.50;1.02;;;16.70;61.80;;;;;;4856257;29;20069;-70
2021/09/30 11:37:50;;;;;;;7.10;1.00;;;16.70;63.00;;;;;;4862523;29;20778;-69
2021/09/30 11:40:19;;;;;;;8.15;1.25;;;16.80;63.90;;;;;;4863934;29;20041;-70
2021/09/30 11:42:49;;;;;;;4.70;1.30;;;16.90;63.80;;;;;;4868569;29;20806;-69
2021/09/30 11:45:21;;;;;;;5.20;1.20;;;16.80;62.90;;;;;;4875829;29;20728;-71
2021/09/30 11:47:48;;;;;;;6.80;1.80;;;16.70;61.80;;;;;;4858270;29;20129;-69
2021/09/30 11:50:26;;;;;;;4.70;1.08;;;16.60;62.20;;;;;;4865637;29;20050;-69
2021/09/30 11:53:08;;;;;;;4.50;0.95;;;16.60;62.90;;;;;;4861530;29;20044;-70
2021/09/30 11:55:40;;;;;;;5.95;1.50;;;16.60;61.70;;;;;;4870282;29;20045;-65
2021/09/30 11:58:09;;;;;;;6.97;0.93;;;16.50;60.80;;;;;;4857835;29;20047;-69
2021/09/30 12:00:34;;;;;;;3.22;0.80;;;16.50;62.70;;;;;;4862691;29;20038;-68
2021/09/30 12:03:05;;;;;;;4.45;0.90;;;16.60;62.80;;;;;;4864933;29;20040;-69
2021/09/30 12:05:37;;;;;;;7.65;0.88;;;16.70;64.10;;;;;;4858682;29;20041;-68
2021/09/30 12:08:05;;;;;;;3.72;1.23;;;16.70;63.30;;;;;;4860042;29;20047;-68
2021/09/30 12:10:33;;;;;;;6.50;1.00;;;16.80;63.50;;;;;;4858951;29;20032;-71
2021/09/30 12:12:59;;;;;;;1.33;0.65;;;16.70;62.60;;;;;;4865581;29;20037;-71
2021/09/30 12:15:26;;;;;;;4.05;0.80;;;16.70;63.20;;;;;;4864624;29;20117;-70
2021/09/30 12:17:52;;;;;;;3.05;0.80;;;16.60;62.40;;;;;;4852308;29;20048;-68
2021/09/30 12:20:19;;;;;;;4.28;1.00;;;16.70;62.10;;;;;;4857654;29;20128;-68
2021/09/30 12:22:53;;;;;;;5.50;0.90;;;16.80;62.60;;;;;;4862124;29;20223;-69
2021/09/30 12:25:28;;;;;;;3.58;0.70;;;16.90;61.30;;;;;;4853156;29;20109;-68
2021/09/30 12:27:56;;;;;;;5.30;0.90;;;16.90;60.90;;;;;;4857749;29;20162;-68
2021/09/30 12:30:25;;;;;;;4.38;1.63;;;16.80;60.90;;;;;;4858706;29;20762;-68
2021/09/30 12:32:53;;;;;;;2.85;1.00;;;16.90;60.50;;;;;;4867339;29;20651;-69
2021/09/30 12:35:28;;;;;;;3.13;0.93;;;17.00;61.50;;;;;;4863216;29;20687;-69
2021/09/30 12:38:00;;;;;;;4.43;1.10;;;17.20;61.50;;;;;;4867707;29;20136;-69
2021/09/30 12:40:28;;;;;;;3.03;0.75;;;17.30;61.30;;;;;;4876613;29;20041;-70
2021/09/30 12:42:59;;;;;;;1.80;0.80;;;17.50;60.60;;;;;;4864225;29;20205;-67
2021/09/30 12:45:24;;;;;;;3.17;0.80;;;17.70;59.60;;;;;;4861502;29;20053;-71
2021/09/30 12:48:03;;;;;;;2.00;0.77;;;18.00;56.20;;;;;;4852378;29;20049;-72
2021/09/30 12:50:47;;;;;;;4.80;0.95;;;18.00;56.40;;;;;;4868831;29;20045;-70
2021/09/30 12:53:14;;;;;;;6.03;0.90;;;17.90;56.40;;;;;;4877423;29;20038;-69
2021/09/30 12:55:41;;;;;;;3.50;1.40;;;17.70;56.80;;;;;;4861243;29;20091;-70
2021/09/30 12:58:37;;;;;;;3.60;0.82;;;17.70;57.50;;;;;;4864196;29;20048;-69
2021/09/30 13:01:30;;;;;;;2.88;0.60;;;17.70;55.70;;;;;;4872310;29;20051;-69
2021/09/30 13:04:24;;;;;;;5.85;0.73;;;17.70;56.00;;;;;;4866442;29;20056;-71
2021/09/30 13:06:56;;;;;;;6.70;0.95;;;17.70;55.80;;;;;;4866468;29;20119;-70
2021/09/30 13:09:25;;;;;;;3.88;0.75;;;17.80;56.60;;;;;;4865302;29;20103;-70
2021/09/30 13:11:55;;;;;;;2.45;0.75;;;17.80;56.30;;;;;;4867244;29;20430;-71
2021/09/30 13:14:35;;;;;;;4.20;0.63;;;17.90;55.60;;;;;;4866920;29;20379;-70
2021/09/30 13:17:16;;;;;;;3.63;0.85;;;17.90;55.00;;;;;;4861475;29;20095;-68
2021/09/30 13:19:55;;;;;;;3.00;0.88;;;17.80;54.80;;;;;;4864429;29;20041;-69
2021/09/30 13:22:38;;;;;;;4.78;1.00;;;17.70;55.00;;;;;;4858511;29;20045;-68
2021/09/30 13:25:10;;;;;;;2.42;0.60;;;17.70;56.60;;;;;;4859322;29;20045;-70
2021/09/30 13:27:37;;;;;;;7.07;1.40;;;17.70;57.30;;;;;;4863240;29;20089;-70
2021/09/30 13:30:06;;;;;;;4.18;0.60;;;17.60;57.00;;;;;;4864277;29;20390;-68
2021/09/30 13:32:32;;;;;;;5.35;0.63;;;17.60;56.80;;;;;;4866844;29;20494;-71
2021/09/30 13:34:58;;;;;;;4.45;0.80;;;17.60;56.50;;;;;;4866668;29;20418;-69
2021/09/30 13:37:25;;;;;;;4.55;1.15;;;17.70;56.80;;;;;;4861051;29;20059;-69
2021/09/30 13:39:55;;;;;;;6.38;1.08;;;17.70;56.70;;;;;;4861212;29;20075;-69
2021/09/30 13:42:21;;;;;;;6.82;0.90;;;17.60;57.00;;;;;;4865689;29;20032;-69
2021/09/30 13:44:47;;;;;;;6.22;1.05;;;17.60;55.30;;;;;;4867331;29;20394;-69
2021/09/30 13:47:13;;;;;;;6.68;1.17;;;17.50;57.20;;;;;;4872369;29;20034;-70
2021/09/30 13:49:39;;;;;;;5.80;0.90;;;17.50;56.00;;;;;;4866422;29;20037;-70
2021/09/30 13:52:05;;;;;;;6.18;1.30;;;17.60;56.10;;;;;;4854731;29;20046;-69
2021/09/30 13:54:31;;;;;;;1.83;0.68;;;17.60;54.90;;;;;;4850278;29;20049;-69
2021/09/30 13:56:56;;;;;;;6.70;0.57;;;17.50;55.00;;;;;;4862320;29;20045;-71
2021/09/30 13:59:22;;;;;;;2.83;0.90;;;17.50;56.00;;;;;;4861110;29;20039;-69
2021/09/30 14:01:48;;;;;;;2.72;0.82;;;17.50;58.20;;;;;;4864189;29;20851;-68
2021/09/30 14:04:13;;;;;;;3.10;0.80;;;17.50;56.50;;;;;;4854915;29;20098;-70
2021/09/30 14:06:39;;;;;;;5.03;1.10;;;17.50;57.30;;;;;;4848385;29;20034;-69
2021/09/30 14:09:05;;;;;;;4.47;1.00;;;17.60;54.70;;;;;;4858735;29;20037;-68
2021/09/30 14:11:30;;;;;;;4.30;0.85;;;17.70;55.90;;;;;;4869322;29;20039;-68
2021/09/30 14:13:56;;;;;;;5.57;0.95;;;17.80;55.20;;;;;;4854051;29;20045;-68
2021/09/30 14:16:23;;;;;;;2.83;0.68;;;17.70;56.80;;;;;;4857958;29;20082;-68
2021/09/30 14:18:49;;;;;;;3.40;0.90;;;17.70;56.00;;;;;;4859894;29;20673;-68
2021/09/30 14:21:16;;;;;;;5.32;1.25;;;17.70;57.30;;;;;;4855191;29;20043;-68
2021/09/30 14:23:42;;;;;;;4.82;1.10;;;17.60;56.30;;;;;;4862900;29;20067;-71
2021/09/30 14:26:08;;;;;;;2.47;0.88;;;17.70;55.90;;;;;;4854003;29;20052;-71
2021/09/30 14:28:33;;;;;;;7.13;1.38;;;17.50;55.10;;;;;;4849871;29;20045;-69
2021/09/30 14:30:59;;;;;;;6.40;1.02;;;17.30;55.10;;;;;;4863439;29;20041;-70
2021/09/30 14:33:27;;;;;;;6.68;0.95;;;17.10;56.10;;;;;;4864084;29;20060;-70
2021/09/30 14:35:53;;;;;;;3.97;0.98;;;16.90;56.80;;;;;;4864880;29;20824;-71
2021/09/30 14:38:19;;;;;;;3.83;1.00;;;16.80;57.30;;;;;;4857590;29;20128;-69
2021/09/30 14:40:49;;;;;;;5.32;0.95;;;16.80;58.20;;;;;;4852408;29;20144;-70
2021/09/30 14:43:20;;;;;;;4.65;1.17;;;16.90;58.60;;;;;;4856289;29;20825;-69
2021/09/30 14:45:48;;;;;;;5.97;1.38;;;17.00;57.00;;;;;;4863379;29;20523;-69
2021/09/30 14:48:13;;;;;;;3.00;0.80;;;17.00;57.60;;;;;;4864195;29;20044;-69
2021/09/30 14:50:41;;;;;;;3.40;0.88;;;17.10;57.60;;;;;;4861148;29;20037;-71
2021/09/30 14:53:08;;;;;;;4.20;0.80;;;17.30;58.70;;;;;;4865144;29;20040;-69
2021/09/30 14:55:35;;;;;;;5.35;0.70;;;17.30;56.60;;;;;;4869659;29;20374;-70
2021/09/30 14:58:01;;;;;;;4.10;0.77;;;17.40;56.50;;;;;;4862948;29;20048;-70
2021/09/30 15:00:26;;;;;;;5.70;1.08;;;17.30;55.80;;;;;;4859735;29;20045;-69
2021/09/30 15:02:52;;;;;;;5.85;0.70;;;17.20;56.40;;;;;;4864237;29;20041;-71
2021/09/30 15:05:18;;;;;;;4.38;0.95;;;17.10;57.40;;;;;;4866351;29;20036;-69
2021/09/30 15:07:44;;;;;;;3.97;0.68;;;17.20;57.70;;;;;;4863299;29;20463;-70
2021/09/30 15:10:10;;;;;;;2.97;0.60;;;17.10;56.90;;;;;;4869116;29;20040;-69
2021/09/30 15:12:36;;;;;;;3.58;0.70;;;17.00;56.40;;;;;;4873464;29;20049;-69
2021/09/30 15:15:03;;;;;;;1.83;0.57;;;17.00;57.70;;;;;;4864491;29;20044;-69
2021/09/30 15:22:40;;;;;;;3.22;1.15;;;16.90;57.50;;;;;;4857522;29;20076;-71
2021/09/30 15:25:08;;;;;;;3.67;0.90;;;16.90;58.40;;;;;;4863260;29;20717;-69
2021/09/30 15:27:35;;;;;;;2.78;1.25;;;16.90;58.00;;;;;;4859940;29;20045;-69
2021/09/30 15:30:02;;;;;;;3.15;0.90;;;16.90;60.10;;;;;;4864555;29;20044;-69
2021/09/30 15:32:29;;;;;;;2.55;0.75;;;16.90;59.10;;;;;;4862099;29;20140;-69
2021/09/30 15:34:55;;;;;;;6.03;1.02;;;16.70;59.20;;;;;;4853221;29;20046;-68
2021/09/30 15:37:20;;;;;;;5.18;0.77;;;16.70;58.80;;;;;;4857873;29;20052;-68
2021/09/30 15:39:46;;;;;;;5.72;1.00;;;16.60;58.40;;;;;;4862634;29;20037;-69
2021/09/30 15:42:15;;;;;;;3.70;0.70;;;16.50;59.20;;;;;;4869714;29;20041;-71
2021/09/30 15:44:41;;;;;;;4.90;0.90;;;16.30;59.80;;;;;;4862059;29;20096;-71
2021/09/30 15:47:07;;;;;;;3.58;1.08;;;16.30;60.00;;;;;;4860600;29;20029;-69